logo tempoitalia

Diretta Meteo Bullhead City Laughlin, Stati Uniti (USA)domenica 30 agosto ore 23:35

Mappa
Sereno 32 °C Sereno 24 Ore: T.min 32 T.max 42
Ponente Sud Km/h 7.4 Punto di rugiada: 14 °C Umidità: 33% Visibilità: 10 Km
Il sole sorge alle: 06:09 Il sole tramonta alle: 19:07
30 Agosto 2026 23:35 tempo osservato: Sereno Sereno 32 33 1007 vento: Nord S 7.4
30 Agosto 2026 23:15 tempo osservato: Sereno Sereno 32 33 1007 vento: Nord S 14.8
30 Agosto 2026 22:55 tempo osservato: Sereno Sereno 32 38 1007 vento: Nord S 13
30 Agosto 2026 22:35 tempo osservato: Sereno Sereno 32 38 1007 vento: Nord S/SE 13
30 Agosto 2026 22:10 tempo osservato: Sereno Sereno 33 36 1007 vento: Nord S/SO 16.7
30 Agosto 2026 21:55 tempo osservato: Sereno Sereno 33 36 1007 vento: Nord S/SO 16.7
30 Agosto 2026 21:35 tempo osservato: Sereno Sereno 33 33 1007 vento: Nord SO 22.2
30 Agosto 2026 21:10 tempo osservato: Sereno Sereno 35 30 1007 vento: Nord SO 13
30 Agosto 2026 20:55 tempo osservato: Sereno Sereno 37 27 1006 vento: Nord N 7.4
30 Agosto 2026 20:35 tempo osservato: Sereno Sereno 37 27 1005 vento: Nord SE 31.5
30 Agosto 2026 20:10 tempo osservato: Sereno Sereno 38 24 1005 vento: Nord S/SE 35.2
30 Agosto 2026 19:55 tempo osservato: Sereno Sereno 39 21 1004 vento: Nord S/SE 35.2
30 Agosto 2026 19:35 tempo osservato: Sereno Sereno 39 18 1004 vento: Nord S/SE 35.2
30 Agosto 2026 19:15 tempo osservato: Sereno Sereno 40 13 1004 vento: Nord S 22.2
30 Agosto 2026 18:55 tempo osservato: Sereno Sereno 41 13 1004 vento: Nord S/SO 22.2
30 Agosto 2026 18:35 tempo osservato: Sereno Sereno 41 12 1004 vento: Nord S/SO 20.3
30 Agosto 2026 18:10 tempo osservato: Sereno Sereno 42 13 1004 vento: Nord SO 25.9
30 Agosto 2026 17:55 tempo osservato: Sereno Sereno 42 13 1004 vento: Nord S 24
30 Agosto 2026 16:53 tempo osservato: Sereno Sereno 42 13 1004 vento: Nord S/SO 24
30 Agosto 2026 14:49 tempo osservato: Sereno Sereno 42 14 1006 vento: Nord S/SE 24
30 Agosto 2026 13:56 tempo osservato: Sereno Sereno 41 15 1007 vento: Nord S 29.6
30 Agosto 2026 12:47 tempo osservato: Sereno Sereno 40 16 1007 vento: Nord S/SE 24
30 Agosto 2026 11:53 tempo osservato: Sereno Sereno 40 16 1008 vento: Nord S 37
30 Agosto 2026 10:49 tempo osservato: Sereno Sereno 39 18 1009 vento: Nord S/SO 24
30 Agosto 2026 09:49 tempo osservato: Sereno Sereno 37 20 1009 vento: Nord S/SO 16.7
30 Agosto 2026 07:47 tempo osservato: Nuvoloso Nuvoloso 32 25 1009 vento: Nord SO 9.3
30 Agosto 2026 07:45 tempo osservato: Sereno Sereno 32 25 1009 vento: Nord N 5.5
30 Agosto 2026 07:30 tempo osservato: Sereno Sereno 32 25 1009 vento: Nord O/SO 13
30 Agosto 2026 07:15 tempo osservato: Poco Nuvoloso Poco Nuvoloso 33 24 1009 vento: Nord S 11.1
30 Agosto 2026 06:55 tempo osservato: Sereno Sereno 32 25 1008 vento: Nord S/SO 9.3
30 Agosto 2026 06:30 tempo osservato: Sereno Sereno 32 25 1008 vento: Nord S/SO 9.3
30 Agosto 2026 06:10 tempo osservato: Sereno Sereno 34 23 1008 vento: Nord S 14.8
30 Agosto 2026 05:55 tempo osservato: Sereno Sereno 33 24 1007 vento: Nord S/SE 16.7
30 Agosto 2026 05:30 tempo osservato: Sereno Sereno 34 23 1007 vento: Nord S/SE 18.5
30 Agosto 2026 05:15 tempo osservato: Sereno Sereno 33 24 1007 vento: Nord S 14.8
30 Agosto 2026 04:55 tempo osservato: Sereno Sereno 33 24 1007 vento: Nord S/SE 14.8
30 Agosto 2026 04:30 tempo osservato: Sereno Sereno 33 24 1007 vento: Nord S/SE 13
30 Agosto 2026 04:15 tempo osservato: Sereno Sereno 34 23 1007 vento: Nord S/SE 14.8
30 Agosto 2026 03:55 tempo osservato: Sereno Sereno 34 23 1007 vento: Nord S/SE 14.8
30 Agosto 2026 03:35 tempo osservato: Sereno Sereno 34 23 1006 vento: Nord S/SE 16.7
30 Agosto 2026 03:15 tempo osservato: Sereno Sereno 34 23 1006 vento: Nord S/SE 13
30 Agosto 2026 02:55 tempo osservato: Sereno Sereno 35 21 1006 vento: Nord S 11.1
30 Agosto 2026 02:30 tempo osservato: Sereno Sereno 35 21 1006 vento: Nord S 11.1
30 Agosto 2026 02:15 tempo osservato: Sereno Sereno 35 21 1006 vento: Nord N 0
30 Agosto 2026 01:55 tempo osservato: Sereno Sereno 36 20 1005 vento: Nord S 14.8
30 Agosto 2026 01:30 tempo osservato: Sereno Sereno 36 20 1005 vento: Nord S/SE 11.1
30 Agosto 2026 01:15 tempo osservato: Sereno Sereno 36 19 1005 vento: Nord S/SE 11.1
30 Agosto 2026 00:55 tempo osservato: Sereno Sereno 36 19 1005 vento: Nord N 5.5
30 Agosto 2026 00:30 tempo osservato: Sereno Sereno 36 19 1006 vento: Nord S/SO 9.3
30 Agosto 2026 00:15 tempo osservato: Sereno Sereno 37 18 1006 vento: Nord S/SO 7.4
29 Agosto 2026 23:55 tempo osservato: Sereno Sereno 37 18 1005 vento: Nord N 0
29 Agosto 2026 23:35 tempo osservato: Sereno Sereno 38 17 1005 vento: Nord S/SE 9.3